Kamiiso, Japan
Current Conditions -  °F | °C
As of 2:00 PM on Wednesday 26 Nov 2014 (Local Time) from RJCH Reporting Station
Broken Clouds Broken Clouds  
Wind Chill: 40°   Ceiling: 4000
Heat Index: 46°   Visibility: 6mi
Dew Point: 34°   Wind: 15mph
Humidity: 62%   Direction: 100°E
Pressure: 30.12"   Gusts: NA
Location:  41.83°N, 140.67°E
Report Text: RJCH 260500Z 10013KT 9999 FEW025 BKN040 08/01 Q1020
Loading
Personal Weather Stations






























Interactive Weather Map New forecast layout! Learn more

10-Day Weather Forecast

Advertisements
Track Severe Weather on mobile